createdAt,value
2023-03-29T00:01:08.303Z,-1.26
2023-03-29T00:03:44.317Z,-1.20
2023-03-29T00:06:48.067Z,0.09
2023-03-29T00:09:18.485Z,0.62
2023-03-29T00:11:58.454Z,-0.07
2023-03-29T00:14:33.808Z,-0.72
2023-03-29T00:17:08.825Z,-1.16
2023-03-29T00:19:37.186Z,-1.43
2023-03-29T00:22:06.497Z,-1.56
2023-03-29T00:24:43.975Z,-0.78
2023-03-29T00:27:18.297Z,0.52
2023-03-29T00:29:48.693Z,1.80
2023-03-29T00:32:23.832Z,2.56
2023-03-29T00:34:54.791Z,2.03
2023-03-29T00:37:29.387Z,0.92
2023-03-29T00:39:58.483Z,0.14
2023-03-29T00:42:31.599Z,-0.38
2023-03-29T00:45:30.667Z,-0.77
2023-03-29T00:48:30.292Z,-1.06
2023-03-29T00:51:21.724Z,-0.00
2023-03-29T00:54:04.297Z,0.83
2023-03-29T00:57:13.822Z,0.29
2023-03-29T00:59:57.516Z,-0.42
2023-03-29T01:02:55.663Z,-0.81
2023-03-29T01:05:48.103Z,-0.62
2023-03-29T01:08:27.658Z,0.54
2023-03-29T01:11:24.003Z,0.57
2023-03-29T01:15:05.602Z,-0.09
2023-03-29T01:17:45.777Z,-0.71
2023-03-29T01:20:53.898Z,-0.61
2023-03-29T01:24:45.719Z,0.75
2023-03-29T01:27:50.336Z,0.77
2023-03-29T01:30:26.266Z,-0.07
2023-03-29T01:33:35.302Z,-0.48
2023-03-29T01:37:00.431Z,-0.83
2023-03-29T01:39:28.693Z,0.36
2023-03-29T01:42:54.337Z,1.45
2023-03-29T01:46:37.877Z,0.92
2023-03-29T01:50:05.767Z,-0.07
2023-03-29T01:53:26.320Z,-0.60
2023-03-29T01:56:13.722Z,-0.93
2023-03-29T01:58:52.585Z,-0.90
2023-03-29T02:01:30.102Z,0.21
2023-03-29T02:04:10.723Z,1.31
2023-03-29T02:06:46.020Z,1.29
2023-03-29T02:09:17.026Z,0.61
2023-03-29T02:11:47.869Z,0.06
2023-03-29T02:14:18.183Z,-0.38
2023-03-29T02:16:46.540Z,-0.68
2023-03-29T02:19:18.098Z,-0.90
2023-03-29T02:22:10.530Z,-1.06
2023-03-29T02:24:48.274Z,-1.20
2023-03-29T02:27:16.364Z,-1.30
2023-03-29T02:29:53.681Z,-1.38
2023-03-29T02:32:46.693Z,-1.42
2023-03-29T02:35:24.728Z,-1.46
2023-03-29T02:38:17.369Z,-1.49
2023-03-29T02:40:45.693Z,-1.52
2023-03-29T02:43:14.427Z,-1.54
2023-03-29T02:45:42.547Z,-1.56
2023-03-29T02:48:16.313Z,-1.56
2023-03-29T02:50:52.560Z,-1.55
2023-03-29T02:53:32.848Z,-1.56
2023-03-29T02:56:07.282Z,-1.56
2023-03-29T02:58:38.432Z,-1.57
2023-03-29T03:01:12.520Z,-1.54
2023-03-29T03:03:41.541Z,-1.54
2023-03-29T03:06:10.609Z,-1.54
2023-03-29T03:08:43.110Z,-1.53
2023-03-29T03:11:11.152Z,-1.53
2023-03-29T03:13:39.287Z,-1.53
2023-03-29T03:16:13.610Z,-1.56
2023-03-29T03:18:46.181Z,-1.57
2023-03-29T03:21:20.410Z,-1.58
2023-03-29T03:23:48.807Z,-1.60
2023-03-29T03:26:18.253Z,-1.60
2023-03-29T03:28:50.422Z,-1.61
2023-03-29T03:31:46.159Z,-1.63
2023-03-29T03:34:28.055Z,-1.66
2023-03-29T03:37:05.376Z,-1.71
2023-03-29T03:39:34.674Z,-1.75
2023-03-29T03:42:08.352Z,-1.81
2023-03-29T03:44:45.042Z,-1.87
2023-03-29T03:47:33.402Z,-1.92
2023-03-29T03:50:23.116Z,-1.97
2023-03-29T03:52:53.836Z,-2.01
2023-03-29T03:55:33.646Z,-2.06
2023-03-29T03:58:17.918Z,-2.12
2023-03-29T04:00:50.296Z,-2.16
2023-03-29T04:03:24.857Z,-2.19
2023-03-29T04:06:04.123Z,-2.23
2023-03-29T04:08:53.489Z,-2.26
2023-03-29T04:11:44.296Z,-2.28
2023-03-29T04:14:15.234Z,-2.31
2023-03-29T04:17:04.910Z,-2.33
2023-03-29T04:19:46.394Z,-2.35
2023-03-29T04:22:15.038Z,-2.37
2023-03-29T04:24:44.279Z,-2.38
2023-03-29T04:27:32.597Z,-2.38
2023-03-29T04:30:11.507Z,-2.39
2023-03-29T04:32:58.437Z,-2.38
2023-03-29T04:35:27.251Z,-2.31
2023-03-29T04:37:57.817Z,-2.16
2023-03-29T04:40:33.734Z,-1.97
2023-03-29T04:43:20.515Z,-1.77
2023-03-29T04:46:18.612Z,-1.60
2023-03-29T04:49:08.601Z,-1.43
2023-03-29T04:51:53.003Z,-1.32
2023-03-29T04:54:36.762Z,-1.17
2023-03-29T04:57:30.371Z,-1.02
2023-03-29T05:00:43.668Z,-0.88
2023-03-29T05:04:10.755Z,-0.71
2023-03-29T05:07:29.832Z,-0.49
2023-03-29T05:10:24.484Z,-0.24
2023-03-29T05:13:11.320Z,0.32
2023-03-29T05:15:43.586Z,0.68
2023-03-29T05:18:12.958Z,1.11
2023-03-29T05:20:53.242Z,1.54
2023-03-29T05:23:27.962Z,2.01
2023-03-29T05:26:33.109Z,2.49
2023-03-29T05:29:23.524Z,2.85
2023-03-29T05:32:11.299Z,3.20
2023-03-29T05:34:44.164Z,3.55
2023-03-29T05:37:35.218Z,4.00
2023-03-29T05:40:10.601Z,4.48
2023-03-29T05:43:04.773Z,5.00
2023-03-29T05:45:39.413Z,5.41
2023-03-29T05:48:09.809Z,5.81
2023-03-29T05:50:40.759Z,5.93
2023-03-29T05:56:54.025Z,6.46
2023-03-29T05:59:26.861Z,6.41
2023-03-29T06:01:59.092Z,6.59
2023-03-29T06:04:37.906Z,6.95
2023-03-29T06:07:38.045Z,7.35
2023-03-29T06:10:25.295Z,7.52
2023-03-29T06:13:01.352Z,7.61
2023-03-29T06:15:56.054Z,7.81
2023-03-29T06:18:36.018Z,8.09
2023-03-29T06:21:29.056Z,8.37
2023-03-29T06:24:03.059Z,8.72
2023-03-29T06:26:35.533Z,8.95
2023-03-29T06:29:24.417Z,9.18
2023-03-29T06:31:57.990Z,9.36
2023-03-29T06:35:03.232Z,9.51
2023-03-29T06:38:15.855Z,9.52
2023-03-29T06:41:31.562Z,9.40
2023-03-29T06:44:49.884Z,8.85
2023-03-29T06:48:08.217Z,8.94
2023-03-29T06:50:42.563Z,8.66
2023-03-29T06:53:31.461Z,8.57
2023-03-29T06:56:26.173Z,8.84
2023-03-29T06:59:04.008Z,8.94
2023-03-29T07:01:45.329Z,8.61
2023-03-29T07:04:36.877Z,8.47
2023-03-29T07:07:20.527Z,8.80
2023-03-29T07:09:55.795Z,8.98
2023-03-29T07:12:46.374Z,9.04
2023-03-29T07:15:31.049Z,9.26
2023-03-29T07:18:28.710Z,9.75
2023-03-29T07:20:59.636Z,9.59
2023-03-29T07:23:30.776Z,9.14
2023-03-29T07:26:34.794Z,9.16
2023-03-29T07:29:52.284Z,9.48
2023-03-29T07:32:35.156Z,9.05
2023-03-29T07:36:03.732Z,9.17
2023-03-29T07:38:57.245Z,8.96
2023-03-29T07:41:29.019Z,8.40
2023-03-29T07:44:09.294Z,8.15
2023-03-29T07:47:01.954Z,7.95
2023-03-29T07:49:34.526Z,7.74
2023-03-29T07:52:04.126Z,7.67
2023-03-29T07:54:42.440Z,7.62
2023-03-29T07:57:36.526Z,7.49
2023-03-29T08:00:16.554Z,7.22
2023-03-29T08:02:57.482Z,6.49
2023-03-29T08:05:40.647Z,5.81
2023-03-29T08:08:18.252Z,5.26
2023-03-29T08:10:54.417Z,4.94
2023-03-29T08:13:32.729Z,4.70
2023-03-29T08:16:25.453Z,4.51
2023-03-29T08:19:23.149Z,4.42
2023-03-29T08:22:02.171Z,4.22
2023-03-29T08:24:37.578Z,4.21
2023-03-29T08:27:11.431Z,3.98
2023-03-29T08:29:39.920Z,3.84
2023-03-29T08:32:17.496Z,3.83
2023-03-29T08:34:51.201Z,3.81
2023-03-29T08:37:28.383Z,3.76
2023-03-29T08:40:33.624Z,3.61
2023-03-29T08:44:15.261Z,3.66
2023-03-29T08:47:55.222Z,3.75
2023-03-29T08:50:36.799Z,3.76
2023-03-29T08:53:47.838Z,3.75
2023-03-29T08:56:40.634Z,3.78
2023-03-29T08:59:33.741Z,3.77
2023-03-29T09:02:05.286Z,3.87
2023-03-29T09:04:39.414Z,3.93
2023-03-29T09:07:28.166Z,3.98
2023-03-29T09:09:58.310Z,3.93
2023-03-29T09:13:21.728Z,3.94
2023-03-29T09:16:27.675Z,3.97
2023-03-29T09:19:24.451Z,4.03
2023-03-29T09:25:50.880Z,3.94
2023-03-29T09:29:13.793Z,3.81
2023-03-29T09:32:00.360Z,3.92
2023-03-29T09:34:42.166Z,3.89
2023-03-29T09:37:37.333Z,4.03
2023-03-29T09:40:19.153Z,4.01
2023-03-29T09:42:57.368Z,4.03
2023-03-29T09:45:58.458Z,4.01
2023-03-29T09:49:11.813Z,4.01
2023-03-29T09:51:40.477Z,4.07
2023-03-29T09:54:12.401Z,4.04
2023-03-29T09:57:04.114Z,4.02
2023-03-29T10:00:14.742Z,4.05
2023-03-29T10:02:43.553Z,4.45
2023-03-29T10:05:18.190Z,4.43
2023-03-29T10:07:58.891Z,4.39
2023-03-29T10:10:36.913Z,4.28
2023-03-29T10:13:07.248Z,4.29
2023-03-29T10:15:35.619Z,4.35
2023-03-29T10:18:10.973Z,4.49
2023-03-29T10:20:39.954Z,4.55
2023-03-29T10:23:10.471Z,4.58
2023-03-29T10:25:42.657Z,4.79
2023-03-29T10:28:17.735Z,4.90
2023-03-29T10:30:48.709Z,4.80
2023-03-29T10:33:24.175Z,4.73
2023-03-29T10:35:52.418Z,4.75
2023-03-29T10:38:21.069Z,4.78
2023-03-29T10:40:51.829Z,4.91
2023-03-29T10:43:29.832Z,4.99
2023-03-29T10:46:08.273Z,4.99
2023-03-29T10:48:39.903Z,4.94
2023-03-29T10:51:07.877Z,4.87
2023-03-29T10:53:37.650Z,4.86
2023-03-29T10:56:39.239Z,4.94
2023-03-29T11:00:09.326Z,4.98
2023-03-29T11:03:22.833Z,5.05
2023-03-29T11:06:11.148Z,5.17
2023-03-29T11:09:05.363Z,5.21
2023-03-29T11:12:01.098Z,5.21
2023-03-29T11:15:01.750Z,5.29
2023-03-29T11:17:54.085Z,5.30
2023-03-29T11:20:38.026Z,5.36
2023-03-29T11:23:20.238Z,5.42
2023-03-29T11:26:21.571Z,5.44
2023-03-29T11:29:05.362Z,5.45
2023-03-29T11:32:07.482Z,5.49
2023-03-29T11:35:09.548Z,5.49
2023-03-29T11:38:02.079Z,5.49
2023-03-29T11:41:02.662Z,5.47
2023-03-29T11:44:27.428Z,5.45
2023-03-29T11:47:03.251Z,5.44
2023-03-29T11:49:38.437Z,5.50
2023-03-29T11:52:26.322Z,5.55
2023-03-29T11:55:16.210Z,5.70
2023-03-29T11:57:48.556Z,5.68
2023-03-29T12:00:22.201Z,5.74
2023-03-29T12:03:10.319Z,5.89
2023-03-29T12:05:57.768Z,5.93
2023-03-29T12:08:31.657Z,5.92
2023-03-29T12:11:48.469Z,5.88
2023-03-29T12:14:48.722Z,5.85
2023-03-29T12:17:24.260Z,5.87
2023-03-29T12:20:26.802Z,5.93
2023-03-29T12:23:12.846Z,6.00
2023-03-29T12:26:40.532Z,6.13
2023-03-29T12:29:08.774Z,6.27
2023-03-29T12:31:55.065Z,6.22
2023-03-29T12:35:42.183Z,6.26
2023-03-29T12:38:31.845Z,6.36
2023-03-29T12:41:21.774Z,6.37
2023-03-29T12:44:33.442Z,6.41
2023-03-29T12:47:43.692Z,6.39
2023-03-29T12:50:48.917Z,6.30
2023-03-29T12:53:24.940Z,6.29
2023-03-29T12:56:12.761Z,6.36
2023-03-29T12:58:55.510Z,6.34
2023-03-29T13:01:41.536Z,6.31
2023-03-29T13:04:20.604Z,6.33
2023-03-29T13:06:49.709Z,6.41
2023-03-29T13:09:52.909Z,6.51
2023-03-29T13:12:44.792Z,6.54
2023-03-29T13:15:19.025Z,6.58
2023-03-29T13:18:49.628Z,6.65
2023-03-29T13:22:29.085Z,6.75
2023-03-29T13:25:54.702Z,6.79
2023-03-29T13:29:14.129Z,6.77
2023-03-29T13:32:03.813Z,6.85
2023-03-29T13:35:00.267Z,6.79
2023-03-29T13:37:57.945Z,6.82
2023-03-29T13:40:43.913Z,6.79
2023-03-29T13:44:04.671Z,6.79
2023-03-29T13:46:38.454Z,6.85
2023-03-29T13:49:25.882Z,6.81
2023-03-29T13:51:53.913Z,6.85
2023-03-29T13:54:28.446Z,6.86
2023-03-29T13:57:08.997Z,6.89
2023-03-29T14:00:07.274Z,6.87
2023-03-29T14:03:01.707Z,6.88
2023-03-29T14:05:36.446Z,6.90
2023-03-29T14:08:29.232Z,6.88
2023-03-29T14:11:02.640Z,6.83
2023-03-29T14:13:40.810Z,6.77
2023-03-29T14:16:10.389Z,6.75
2023-03-29T14:18:41.053Z,6.74
2023-03-29T14:21:12.974Z,6.71
2023-03-29T14:24:02.066Z,6.66
2023-03-29T14:26:32.776Z,6.59
2023-03-29T14:29:02.029Z,6.54
2023-03-29T14:31:50.870Z,6.49
2023-03-29T14:34:19.305Z,6.42
2023-03-29T14:36:54.237Z,6.38
2023-03-29T14:39:23.028Z,6.36
2023-03-29T14:41:53.184Z,6.30
2023-03-29T14:44:22.629Z,6.27
2023-03-29T14:46:51.090Z,6.25
2023-03-29T14:49:20.368Z,6.19
2023-03-29T14:51:49.357Z,6.16
2023-03-29T14:54:29.050Z,6.09
2023-03-29T14:56:58.117Z,6.09
2023-03-29T14:59:35.704Z,6.09
2023-03-29T15:02:04.169Z,6.06
2023-03-29T15:04:34.893Z,6.04
2023-03-29T15:07:10.513Z,6.02
2023-03-29T15:09:40.208Z,5.97
2023-03-29T15:12:14.820Z,5.95
2023-03-29T15:14:43.223Z,5.93
2023-03-29T15:17:51.070Z,5.89
2023-03-29T15:20:35.008Z,5.86
2023-03-29T15:23:16.450Z,5.87
2023-03-29T15:26:12.394Z,5.90
2023-03-29T15:28:55.846Z,5.88
2023-03-29T15:31:53.697Z,5.83
2023-03-29T15:34:32.224Z,5.77
2023-03-29T15:37:21.780Z,5.74
2023-03-29T15:39:53.220Z,5.72
2023-03-29T15:42:21.694Z,5.68
2023-03-29T15:44:49.959Z,5.65
2023-03-29T15:47:18.058Z,5.61
2023-03-29T15:49:49.055Z,5.60
2023-03-29T15:52:20.350Z,5.58
2023-03-29T15:54:48.401Z,5.55
2023-03-29T15:57:16.556Z,5.51
2023-03-29T15:59:44.899Z,5.48
2023-03-29T16:02:17.417Z,5.42
2023-03-29T16:04:45.996Z,5.34
2023-03-29T16:07:16.560Z,5.28
2023-03-29T16:09:45.985Z,5.22
2023-03-29T16:12:16.377Z,5.15
2023-03-29T16:14:44.725Z,5.06
2023-03-29T16:17:14.234Z,4.98
2023-03-29T16:19:42.422Z,4.90
2023-03-29T16:22:10.674Z,4.82
2023-03-29T16:24:38.923Z,4.74
2023-03-29T16:27:07.008Z,4.66
2023-03-29T16:29:35.217Z,4.57
2023-03-29T16:32:06.150Z,4.48
2023-03-29T16:34:44.912Z,4.37
2023-03-29T16:37:13.963Z,4.26
2023-03-29T16:39:49.508Z,4.14
2023-03-29T16:42:17.585Z,4.01
2023-03-29T16:44:45.957Z,3.87
2023-03-29T16:47:14.344Z,3.73
2023-03-29T16:49:45.078Z,3.59
2023-03-29T16:52:14.410Z,3.43
2023-03-29T16:54:42.674Z,3.29
2023-03-29T16:57:11.209Z,3.14
2023-03-29T16:59:41.799Z,3.01
2023-03-29T17:02:30.370Z,2.89
2023-03-29T17:05:16.351Z,2.76
2023-03-29T17:07:58.084Z,2.60
2023-03-29T17:10:26.383Z,2.49
2023-03-29T17:12:56.070Z,2.37
2023-03-29T17:15:47.070Z,2.26
2023-03-29T17:18:15.166Z,2.13
2023-03-29T17:20:43.441Z,2.05
2023-03-29T17:23:39.564Z,1.97
2023-03-29T17:26:07.729Z,1.86
2023-03-29T17:28:36.196Z,1.76
2023-03-29T17:31:34.941Z,1.67
2023-03-29T17:34:03.509Z,1.51
2023-03-29T17:36:37.436Z,1.35
2023-03-29T17:39:05.586Z,1.20
2023-03-29T17:41:33.849Z,1.08
2023-03-29T17:44:02.698Z,0.98
2023-03-29T17:46:31.226Z,0.89
2023-03-29T17:49:00.413Z,0.81
2023-03-29T17:51:48.905Z,0.72
2023-03-29T17:54:17.188Z,0.65
2023-03-29T17:56:46.902Z,0.61
2023-03-29T17:59:15.444Z,0.56
2023-03-29T18:01:43.765Z,0.49
2023-03-29T18:04:11.869Z,0.44
2023-03-29T18:06:39.987Z,0.39
2023-03-29T18:09:10.080Z,0.32
2023-03-29T18:11:39.137Z,0.27
2023-03-29T18:14:07.609Z,0.19
2023-03-29T18:16:36.412Z,0.08
2023-03-29T18:19:04.708Z,-0.02
2023-03-29T18:21:32.791Z,-0.09
2023-03-29T18:24:01.073Z,-0.13
2023-03-29T18:26:29.882Z,-0.14
2023-03-29T18:28:58.109Z,-0.15
2023-03-29T18:31:27.823Z,-0.19
2023-03-29T18:33:56.047Z,-0.23
2023-03-29T18:36:25.754Z,-0.27
2023-03-29T18:38:55.739Z,-0.31
2023-03-29T18:41:27.411Z,-0.34
2023-03-29T18:43:57.423Z,-0.37
2023-03-29T18:46:26.257Z,-0.39
2023-03-29T18:48:54.676Z,-0.42
2023-03-29T18:51:23.502Z,-0.46
2023-03-29T18:53:51.777Z,-0.49
2023-03-29T18:56:20.196Z,-0.53
2023-03-29T18:58:48.494Z,-0.59
2023-03-29T19:01:16.699Z,-0.64
2023-03-29T19:03:45.044Z,-0.67
2023-03-29T19:06:23.805Z,-0.70
2023-03-29T19:09:02.351Z,-0.72
2023-03-29T19:11:30.593Z,-0.74
2023-03-29T19:13:58.945Z,-0.76
2023-03-29T19:16:27.706Z,-0.79
2023-03-29T19:18:55.867Z,-0.81
2023-03-29T19:21:32.640Z,-0.83
2023-03-29T19:24:03.973Z,-0.86
2023-03-29T19:26:33.491Z,-0.88
2023-03-29T19:29:01.873Z,-0.92
2023-03-29T19:31:30.404Z,-0.94
2023-03-29T19:33:58.535Z,-0.97
2023-03-29T19:36:28.281Z,-0.99
2023-03-29T19:38:56.798Z,-1.02
2023-03-29T19:41:24.963Z,-1.05
2023-03-29T19:44:00.571Z,-1.08
2023-03-29T19:46:29.114Z,-1.10
2023-03-29T19:48:59.408Z,-1.12
2023-03-29T19:51:27.785Z,-1.14
2023-03-29T19:53:56.003Z,-1.15
2023-03-29T19:56:25.698Z,-1.16
2023-03-29T19:58:53.996Z,-1.20
2023-03-29T20:01:22.923Z,-1.23
2023-03-29T20:03:51.037Z,-1.27
2023-03-29T20:06:20.523Z,-1.31
2023-03-29T20:08:49.033Z,-1.36
2023-03-29T20:11:19.969Z,-1.39
2023-03-29T20:13:48.085Z,-1.42
2023-03-29T20:16:17.167Z,-1.44
2023-03-29T20:18:45.754Z,-1.45
2023-03-29T20:21:16.670Z,-1.47
2023-03-29T20:23:45.588Z,-1.50
2023-03-29T20:26:14.243Z,-1.52
2023-03-29T20:28:42.620Z,-1.53
2023-03-29T20:31:11.201Z,-1.55
2023-03-29T20:33:39.549Z,-1.56
2023-03-29T20:36:08.760Z,-1.58
2023-03-29T20:38:37.410Z,-1.60
2023-03-29T20:41:05.996Z,-1.62
2023-03-29T20:43:37.829Z,-1.63
2023-03-29T20:46:18.451Z,-1.64
2023-03-29T20:48:53.516Z,-1.64
2023-03-29T20:51:30.391Z,-1.64
2023-03-29T20:54:05.214Z,-1.64
2023-03-29T20:56:39.752Z,-1.64
2023-03-29T20:59:10.947Z,-1.63
2023-03-29T21:01:40.927Z,-1.63
2023-03-29T21:04:10.983Z,-1.62
2023-03-29T21:06:42.103Z,-1.64
2023-03-29T21:09:10.179Z,-1.65
2023-03-29T21:11:58.589Z,-1.68
2023-03-29T21:14:26.801Z,-1.68
2023-03-29T21:16:55.061Z,-1.67
2023-03-29T21:19:24.327Z,-1.66
2023-03-29T21:21:52.464Z,-1.64
2023-03-29T21:24:41.157Z,-1.62
2023-03-29T21:27:09.545Z,-1.60
2023-03-29T21:29:38.000Z,-1.59
2023-03-29T21:32:06.368Z,-1.58
2023-03-29T21:34:34.794Z,-1.58
2023-03-29T21:37:02.810Z,-1.58
2023-03-29T21:39:31.418Z,-1.57
2023-03-29T21:42:02.543Z,-1.57
2023-03-29T21:44:32.582Z,-1.57
2023-03-29T21:47:22.959Z,-1.59
2023-03-29T21:49:51.205Z,-1.59
2023-03-29T21:52:19.458Z,-1.58
2023-03-29T21:54:50.127Z,-1.57
2023-03-29T21:57:18.342Z,-1.56
2023-03-29T21:59:46.392Z,-1.55
2023-03-29T22:02:35.042Z,-1.54
2023-03-29T22:05:04.090Z,-1.54
2023-03-29T22:07:35.291Z,-1.56
2023-03-29T22:10:04.865Z,-1.57
2023-03-29T22:12:34.544Z,-1.46
2023-03-29T22:15:02.592Z,-0.45
2023-03-29T22:17:30.710Z,0.92
2023-03-29T22:19:59.118Z,2.04
2023-03-29T22:22:27.087Z,2.53
2023-03-29T22:24:55.206Z,2.85
2023-03-29T22:27:23.354Z,3.10
2023-03-29T22:29:51.435Z,3.06
2023-03-29T22:32:19.534Z,2.22
2023-03-29T22:34:47.563Z,1.46
2023-03-29T22:37:15.653Z,0.90
2023-03-29T22:39:50.064Z,0.46
2023-03-29T22:42:18.124Z,0.11
2023-03-29T22:45:39.979Z,-0.15
2023-03-29T22:47:51.724Z,-0.41
2023-03-29T22:50:19.892Z,-0.57
2023-03-29T22:52:57.420Z,-0.73
2023-03-29T22:55:46.332Z,-0.86
2023-03-29T22:58:14.419Z,-0.99
2023-03-29T23:00:42.470Z,-1.07
2023-03-29T23:03:11.010Z,-1.13
2023-03-29T23:05:38.956Z,-1.18
2023-03-29T23:08:07.186Z,-1.24
2023-03-29T23:10:35.161Z,-1.29
2023-03-29T23:13:08.658Z,-1.34
2023-03-29T23:15:37.869Z,-1.38
2023-03-29T23:18:07.653Z,-1.41
2023-03-29T23:20:36.043Z,-1.20
2023-03-29T23:23:04.083Z,-0.09
2023-03-29T23:25:32.265Z,0.92
2023-03-29T23:28:00.815Z,1.70
2023-03-29T23:30:35.940Z,2.31
2023-03-29T23:33:04.463Z,2.73
2023-03-29T23:35:32.787Z,2.79
2023-03-29T23:38:00.876Z,2.17
2023-03-29T23:40:28.903Z,1.42
2023-03-29T23:43:03.161Z,0.84
2023-03-29T23:45:31.815Z,0.38
2023-03-29T23:47:59.968Z,0.04
2023-03-29T23:50:31.652Z,-0.24
2023-03-29T23:52:59.801Z,-0.45
2023-03-29T23:55:28.019Z,-0.59
2023-03-29T23:57:56.095Z,-0.15
